This is the latest recevied weather packets stored in our database for station/object WV4O. If no packets are shown the sender has not sent any weather packets the latest 10 day(s).
| Time | Temp. | Humidity | Pressure | Rain* | Wind** | Luminosity | Snow |
|---|---|---|---|---|---|---|---|
| 1777703717 | 8.33° C | 86% | 1017 hPa | 0 mm | - | 0 W/m² | - |
| 1777703117 | 8.33° C | 87% | 1017.1 hPa | 0 mm | - | 0 W/m² | - |
| 1777702517 | 8.33° C | 86% | 1017.1 hPa | 0 mm | - | 0 W/m² | - |
| 1777701338 | 8.89° C | 86% | 1017.2 hPa | 0 mm | - | 0 W/m² | - |
| 1777697718 | 10° C | 76% | 1016.9 hPa | 0 mm | - | 0 W/m² | - |
| 1777694117 | 11.11° C | 70% | 1017.7 hPa | 0 mm | - | 0 W/m² | - |
| 1777691118 | 12.78° C | 59% | 1018 hPa | 0 mm | - | 0 W/m² | - |
| 1777682117 | 15.56° C | 45% | 1016 hPa | 0 mm | - | 10 W/m² | - |
| 1777677917 | 16.67° C | 39% | 1014.4 hPa | 0 mm | - | 125 W/m² | - |
| 1777670116 | 17.22° C | 33% | 1014.1 hPa | 0 mm | - | 571 W/m² | - |
| 1777667117 | 17.22° C | 35% | 1014.7 hPa | 0 mm | - | 766 W/m² | - |
| 1777666517 | 17.78° C | 34% | 1014.6 hPa | 0 mm | - | 791 W/m² | - |
| 1777661738 | 16.67° C | 35% | 1015.4 hPa | 0 mm | - | 984 W/m² | - |
| 1777659319 | 16.11° C | 37% | 1015.5 hPa | 0 mm | - | 1005 W/m² | - |
| 1777658716 | 16.11° C | 37% | 1015.3 hPa | 0 mm | - | 1007 W/m² | - |
| 1777657516 | 16.11° C | 38% | 1015.3 hPa | 0 mm | - | 1007 W/m² | - |
| 1777648518 | 14.44° C | 50% | 1016.1 hPa | 0 mm | - | 711 W/m² | - |
| 1777642517 | 12.78° C | 72% | 1015.2 hPa | 0 mm | - | 388 W/m² | - |
| 1777638318 | 12.22° C | 78% | 1014.8 hPa | 0 mm | - | 171 W/m² | - |
| 1777637138 | 11.67° C | 78% | 1014.9 hPa | 0 mm | - | 115 W/m² | - |
| 1777634118 | 10.56° C | 77% | 1014.8 hPa | 0 mm | - | 15 W/m² | - |
| 1777632316 | 10° C | 81% | 1014.7 hPa | 0 mm | - | 0 W/m² | - |
| 1777629316 | 9.44° C | 86% | 1014.7 hPa | 0 mm | - | 0 W/m² | - |
| 1777628717 | 9.44° C | 88% | 1014.8 hPa | 0 mm | - | 0 W/m² | - |
| 1777623939 | 10° C | 90% | 1014.5 hPa | 0 mm | - | 0 W/m² | - |
* Rain latest hour (hover to see other rain measurements)
** Current wind speed in m/s (hover to see current wind gust speed)